Time;durP1;ratioP1;P1;durP2;ratioP2;P2;SDS_P1;SDS_P2;PMS_P1;PMS_P2;Temp;Humidity;BMP_temperature;BMP_pressure;BME280_temperature;BME280_humidity;BME280_pressure;Samples;Min_cycle;Max_cycle;Signal;HPM_P1;HPM_P2
2021/07/05 00:01:04;;;;;;;17.63;16.52;;;;;;;13.63;68.34;93066.94;5009982;28;20022;-49
2021/07/05 00:03:29;;;;;;;18.85;17.65;;;;;;;13.83;67.92;93062.19;5009559;28;20427;-51
2021/07/05 00:05:54;;;;;;;17.75;16.67;;;;;;;13.82;67.20;93073.88;5009760;28;20500;-48
2021/07/05 00:08:20;;;;;;;19.85;18.27;;;;;;;13.75;67.41;93067.13;5009662;28;20034;-47
2021/07/05 00:10:46;;;;;;;16.92;15.82;;;;;;;13.73;67.46;93064.16;5011000;28;20033;-49
2021/07/05 00:13:11;;;;;;;18.02;17.02;;;;;;;13.70;67.66;93051.47;5029192;28;20087;-47
2021/07/05 00:15:37;;;;;;;18.48;17.40;;;;;;;13.73;67.48;93052.38;5019643;28;20037;-50
2021/07/05 00:18:05;;;;;;;17.58;16.50;;;;;;;13.74;67.40;93056.59;5009415;28;20632;-48
2021/07/05 00:20:34;;;;;;;18.30;17.10;;;;;;;13.73;67.68;93053.06;5009150;28;20026;-49
2021/07/05 00:22:59;;;;;;;17.38;16.25;;;;;;;13.69;67.96;93053.50;5009089;28;20034;-48
2021/07/05 00:25:25;;;;;;;17.23;15.88;;;;;;;13.62;67.44;93054.34;5009462;28;20037;-50
2021/07/05 00:27:50;;;;;;;18.02;17.02;;;;;;;13.60;67.60;93054.19;5009548;28;20021;-49
2021/07/05 00:30:17;;;;;;;16.73;15.80;;;;;;;13.47;67.47;93053.88;5009609;28;20510;-48
2021/07/05 00:32:44;;;;;;;16.48;15.48;;;;;;;13.50;67.32;93050.66;5009354;28;20660;-48
2021/07/05 00:35:10;;;;;;;18.30;17.30;;;;;;;13.40;66.93;93058.22;5009220;28;20065;-48
2021/07/05 00:37:35;;;;;;;16.95;15.75;;;;;;;13.42;66.56;93047.28;5008958;28;20048;-49
2021/07/05 00:40:03;;;;;;;17.45;16.50;;;;;;;13.43;66.40;93048.00;5009119;28;20026;-50
2021/07/05 00:42:28;;;;;;;15.70;14.57;;;;;;;13.39;66.12;93048.41;5009086;28;20029;-50
2021/07/05 00:44:54;;;;;;;18.85;17.27;;;;;;;13.22;66.76;93048.50;5025441;28;20071;-48
2021/07/05 00:47:19;;;;;;;16.92;15.80;;;;;;;13.20;67.45;93039.28;5028771;28;20079;-49
2021/07/05 00:49:45;;;;;;;18.10;17.00;;;;;;;13.21;67.15;93035.91;5028856;28;20537;-46
2021/07/05 00:52:10;;;;;;;16.27;15.27;;;;;;;13.26;67.82;93034.19;5028468;28;20021;-48
2021/07/05 00:54:36;;;;;;;17.13;15.88;;;;;;;13.20;67.93;93031.69;5027559;28;20033;-46
2021/07/05 00:57:02;;;;;;;17.33;16.23;;;;;;;13.16;68.49;93036.94;5028696;28;20419;-46
2021/07/05 00:59:28;;;;;;;17.00;15.88;;;;;;;13.13;68.62;93034.56;5028712;28;20037;-47
2021/07/05 01:01:53;;;;;;;16.08;14.80;;;;;;;12.98;69.75;93037.50;5028626;28;20112;-46
2021/07/05 01:04:19;;;;;;;16.98;15.90;;;;;;;12.99;69.34;93036.22;5028584;28;20430;-47
2021/07/05 01:06:45;;;;;;;17.45;16.35;;;;;;;12.98;68.43;93027.16;5028569;28;20482;-47
2021/07/05 01:09:10;;;;;;;18.40;17.30;;;;;;;13.04;68.74;93035.94;5028150;28;20037;-45
2021/07/05 01:11:36;;;;;;;16.77;15.65;;;;;;;12.97;69.10;93031.25;5019447;28;20041;-47
2021/07/05 01:14:01;;;;;;;17.13;15.75;;;;;;;13.01;68.99;93028.06;5007755;28;20033;-47
2021/07/05 01:16:27;;;;;;;18.10;16.85;;;;;;;13.06;68.55;93036.13;5007289;28;20021;-47
2021/07/05 01:18:53;;;;;;;17.50;16.33;;;;;;;13.07;68.28;93032.06;5007074;28;20034;-49
2021/07/05 01:21:18;;;;;;;16.92;15.70;;;;;;;12.83;69.18;93005.19;5006644;28;20036;-47
2021/07/05 01:23:44;;;;;;;16.40;15.30;;;;;;;12.99;68.92;93022.38;5006469;28;20042;-46
2021/07/05 01:26:09;;;;;;;16.73;15.68;;;;;;;12.92;69.14;93027.44;5006734;28;20030;-50
2021/07/05 01:28:35;;;;;;;17.00;15.90;;;;;;;12.84;69.21;93018.47;5006673;28;20034;-47
2021/07/05 01:31:00;;;;;;;15.60;14.55;;;;;;;12.88;68.63;93020.84;5007822;28;20022;-47
2021/07/05 01:33:26;;;;;;;15.77;14.68;;;;;;;12.86;68.08;93004.78;5008108;28;20855;-47
2021/07/05 01:35:51;;;;;;;15.77;14.77;;;;;;;12.84;68.16;93015.69;5008030;28;20056;-47
2021/07/05 01:38:20;;;;;;;16.45;15.50;;;;;;;12.76;68.19;93011.56;5008130;28;20018;-46
2021/07/05 01:40:58;;;;;;;15.93;15.02;;;;;;;12.64;68.08;92994.00;5008085;28;20575;-47
2021/07/05 01:43:24;;;;;;;15.85;14.70;;;;;;;12.62;68.83;93004.94;5012467;28;20417;-46
2021/07/05 01:45:50;;;;;;;15.75;14.75;;;;;;;12.68;68.72;93019.25;5027664;28;20063;-47
2021/07/05 01:48:16;;;;;;;14.90;13.93;;;;;;;12.60;68.75;93013.81;5027618;28;20268;-46
2021/07/05 01:50:41;;;;;;;16.27;14.70;;;;;;;12.70;67.81;93013.88;5027785;28;20030;-48
2021/07/05 01:53:07;;;;;;;15.32;14.23;;;;;;;12.65;67.91;93018.34;5027464;28;20022;-50
2021/07/05 01:55:34;;;;;;;14.80;13.75;;;;;;;12.70;68.12;93020.16;5027712;28;20021;-49
2021/07/05 01:58:01;;;;;;;15.55;14.55;;;;;;;12.70;68.53;93025.69;5027907;28;20022;-50
2021/07/05 02:00:28;;;;;;;16.00;15.00;;;;;;;12.60;68.65;93021.38;5027726;28;20033;-49
2021/07/05 02:02:54;;;;;;;15.63;14.52;;;;;;;12.46;68.78;93023.00;5027940;28;20471;-48
2021/07/05 02:05:20;;;;;;;16.88;15.65;;;;;;;12.45;69.15;93016.03;5027323;28;20061;-48
2021/07/05 02:07:46;;;;;;;15.95;14.95;;;;;;;12.50;69.35;93026.84;5020678;28;20065;-49
2021/07/05 02:10:15;;;;;;;15.25;14.15;;;;;;;12.47;69.35;93027.25;5008224;28;20026;-46
2021/07/05 02:12:41;;;;;;;;;;;;;;;12.47;69.31;93021.72;5008413;28;20034;-49
2021/07/05 02:15:10;;;;;;;13.85;12.88;;;;;;;12.40;68.81;93028.06;5009410;28;20000;-51
2021/07/05 02:17:36;;;;;;;15.48;14.15;;;;;;;12.40;68.60;93028.81;5009620;28;20030;-49
2021/07/05 02:20:08;;;;;;;16.58;15.38;;;;;;;12.47;68.89;93035.56;5009644;28;20165;-49
2021/07/05 02:22:34;;;;;;;14.10;13.20;;;;;;;12.42;68.10;93028.22;5009700;28;20025;-51
2021/07/05 02:25:02;;;;;;;16.83;15.55;;;;;;;12.37;68.05;93037.50;5009628;28;20037;-49
2021/07/05 02:27:27;;;;;;;16.33;15.32;;;;;;;12.42;67.89;93031.75;5009615;28;20067;-48
2021/07/05 02:29:52;;;;;;;15.52;14.32;;;;;;;12.38;67.82;93028.66;5009529;28;20527;-47
2021/07/05 02:32:18;;;;;;;16.35;15.25;;;;;;;12.37;68.10;93026.44;5009476;28;20541;-49
2021/07/05 02:34:43;;;;;;;14.35;13.43;;;;;;;12.31;68.93;93026.69;5010463;28;20530;-48
2021/07/05 02:37:09;;;;;;;14.48;13.38;;;;;;;12.05;70.46;93022.53;5011906;28;20507;-48
2021/07/05 02:39:34;;;;;;;14.63;13.48;;;;;;;12.16;69.82;93019.28;5013304;28;20030;-47
2021/07/05 02:42:00;;;;;;;13.73;12.73;;;;;;;12.10;70.17;93015.31;5013261;28;20384;-48
2021/07/05 02:44:25;;;;;;;12.88;11.85;;;;;;;12.21;70.23;93019.63;5013252;28;20022;-47
2021/07/05 02:46:50;;;;;;;13.32;12.18;;;;;;;12.25;70.29;93025.47;5012688;28;20670;-46
2021/07/05 02:49:16;;;;;;;13.75;12.75;;;;;;;12.18;69.88;93022.22;5013008;28;20524;-47
2021/07/05 02:51:41;;;;;;;14.80;13.80;;;;;;;12.12;68.91;93018.97;5012907;28;20022;-45
2021/07/05 02:54:07;;;;;;;14.27;13.27;;;;;;;12.14;68.99;93019.13;5012940;28;20026;-46
2021/07/05 02:56:32;;;;;;;14.32;13.38;;;;;;;12.17;69.26;93023.50;5013119;28;20088;-47
2021/07/05 02:58:58;;;;;;;14.93;13.88;;;;;;;12.21;69.64;93025.88;5012909;28;20041;-46
2021/07/05 03:01:23;;;;;;;13.85;12.95;;;;;;;12.27;70.37;93020.09;5012845;28;20026;-46
2021/07/05 03:03:49;;;;;;;12.15;11.23;;;;;;;12.20;70.94;93027.19;5012866;28;20071;-47
2021/07/05 03:06:15;;;;;;;12.80;11.88;;;;;;;12.23;70.74;93026.06;5012774;28;20022;-49
2021/07/05 03:08:40;;;;;;;12.98;12.18;;;;;;;12.24;70.74;93024.72;5012549;28;20543;-49
2021/07/05 03:11:08;;;;;;;15.30;14.02;;;;;;;12.28;69.61;93033.34;5012510;28;20033;-47
2021/07/05 03:13:34;;;;;;;14.48;13.65;;;;;;;12.32;68.96;93024.66;5012834;28;20021;-46
2021/07/05 03:15:59;;;;;;;16.00;14.90;;;;;;;12.22;68.20;93023.84;5012356;28;20569;-46
2021/07/05 03:18:25;;;;;;;14.85;13.95;;;;;;;12.28;68.29;93027.09;5012570;28;20022;-47
2021/07/05 03:20:51;;;;;;;15.38;14.35;;;;;;;12.24;68.29;93032.28;5012501;28;20042;-46
2021/07/05 03:23:19;;;;;;;15.05;14.05;;;;;;;12.24;67.99;93030.28;5012530;28;20029;-47
2021/07/05 03:25:44;;;;;;;15.52;14.48;;;;;;;12.15;68.38;93025.38;5012444;28;20022;-47
2021/07/05 03:28:12;;;;;;;15.63;14.63;;;;;;;12.09;68.64;93028.41;5012352;28;20037;-46
2021/07/05 03:30:40;;;;;;;14.82;13.82;;;;;;;12.06;69.08;93029.53;5011818;28;20032;-46
2021/07/05 03:33:06;;;;;;;15.05;13.95;;;;;;;12.06;69.17;93031.56;5011325;28;20049;-46
2021/07/05 03:35:32;;;;;;;16.67;15.57;;;;;;;12.12;69.24;93027.28;5010443;28;20511;-46
2021/07/05 03:37:58;;;;;;;14.43;13.32;;;;;;;12.10;70.16;93029.88;5010258;28;20021;-47
2021/07/05 03:40:27;;;;;;;15.05;14.05;;;;;;;12.11;69.95;93031.31;5010180;28;20022;-46
2021/07/05 03:42:53;;;;;;;15.15;13.88;;;;;;;12.11;69.82;93027.81;5010093;28;20025;-47
2021/07/05 03:45:20;;;;;;;15.00;14.00;;;;;;;12.03;70.39;93029.94;5009916;28;20049;-46
2021/07/05 03:47:46;;;;;;;13.98;12.88;;;;;;;12.05;71.25;93025.31;5010964;28;20093;-46
2021/07/05 03:50:13;;;;;;;12.95;12.05;;;;;;;12.15;70.77;93028.16;5011923;28;20419;-48
2021/07/05 03:52:38;;;;;;;16.02;15.00;;;;;;;12.29;70.50;93029.31;5011597;28;20026;-46
2021/07/05 03:55:06;;;;;;;15.30;14.30;;;;;;;12.30;69.99;93030.75;5011785;28;20026;-46
2021/07/05 03:57:31;;;;;;;16.42;15.05;;;;;;;12.30;70.03;93019.69;5010925;28;20076;-50
2021/07/05 03:59:57;;;;;;;16.45;15.18;;;;;;;12.31;70.83;93023.19;5010839;28;20026;-49
2021/07/05 04:02:23;;;;;;;15.98;14.65;;;;;;;12.39;70.23;93030.09;5011647;28;20022;-49
2021/07/05 04:04:49;;;;;;;14.65;13.55;;;;;;;12.27;70.66;93009.03;5011371;28;20022;-50
2021/07/05 04:07:16;;;;;;;12.70;11.80;;;;;;;12.17;71.71;93020.03;5011267;28;20590;-51
2021/07/05 04:09:42;;;;;;;14.40;13.25;;;;;;;12.21;71.39;93005.78;5011491;28;20061;-49
2021/07/05 04:12:09;;;;;;;12.75;11.73;;;;;;;12.32;71.94;93013.59;5010839;28;20037;-47
2021/07/05 04:14:35;;;;;;;13.90;12.75;;;;;;;12.41;71.86;93016.41;5011153;28;20072;-50
2021/07/05 04:17:01;;;;;;;13.48;12.48;;;;;;;12.48;72.00;93014.88;5011324;28;20022;-49
2021/07/05 04:19:26;;;;;;;14.48;13.25;;;;;;;12.55;72.25;93011.28;5011343;28;20408;-48
2021/07/05 04:21:52;;;;;;;13.55;12.40;;;;;;;12.59;72.78;93004.03;5011198;28;20032;-46
2021/07/05 04:24:17;;;;;;;14.18;13.07;;;;;;;12.68;72.43;93003.38;5011252;28;20511;-48
2021/07/05 04:26:43;;;;;;;15.55;14.35;;;;;;;12.66;73.08;93008.00;5011217;28;20514;-47
2021/07/05 04:29:08;;;;;;;17.00;15.80;;;;;;;12.77;73.49;92999.19;5010933;28;20487;-48
2021/07/05 04:31:34;;;;;;;16.00;14.63;;;;;;;12.79;73.53;93000.09;5009851;28;20069;-46
2021/07/05 04:33:59;;;;;;;15.75;14.45;;;;;;;12.86;74.22;92995.75;5010825;28;20084;-49
2021/07/05 04:36:25;;;;;;;15.35;14.15;;;;;;;12.95;73.77;92997.81;5010632;28;20080;-47
2021/07/05 04:38:50;;;;;;;16.35;15.00;;;;;;;13.01;74.21;92998.31;5010722;28;20026;-49
2021/07/05 04:41:16;;;;;;;17.58;15.88;;;;;;;12.94;74.74;92983.25;5010978;28;20028;-50
2021/07/05 04:43:41;;;;;;;17.48;16.02;;;;;;;13.10;74.71;93000.44;5010601;28;20026;-47
2021/07/05 04:46:07;;;;;;;17.33;16.02;;;;;;;13.23;75.23;93002.09;5010647;28;20042;-49
2021/07/05 04:48:33;;;;;;;19.85;18.30;;;;;;;13.36;74.83;92996.16;5010551;28;20104;-50
2021/07/05 04:51:00;;;;;;;18.58;16.95;;;;;;;13.43;74.66;92998.06;5010906;28;20116;-48
2021/07/05 04:53:26;;;;;;;19.15;17.48;;;;;;;13.56;74.93;93001.19;5010378;28;20018;-50
2021/07/05 04:55:52;;;;;;;20.13;18.17;;;;;;;13.61;75.22;93002.22;5010639;28;20033;-49
2021/07/05 04:58:18;;;;;;;20.38;18.92;;;;;;;13.66;74.39;93001.94;5010007;28;20034;-51
2021/07/05 05:00:44;;;;;;;19.52;18.23;;;;;;;13.79;73.68;93003.59;4992847;28;20502;-51
2021/07/05 05:03:09;;;;;;;19.83;18.55;;;;;;;13.67;73.69;92981.22;5010889;28;20057;-51
2021/07/05 05:05:35;;;;;;;19.55;17.75;;;;;;;13.93;73.69;92998.34;5010448;28;20450;-50
2021/07/05 05:08:01;;;;;;;21.83;18.65;;;;;;;14.01;73.92;93005.25;5010713;28;20032;-48
2021/07/05 05:10:27;;;;;;;21.35;19.58;;;;;;;14.08;74.18;93011.97;5010570;28;20053;-48
2021/07/05 05:12:53;;;;;;;23.75;21.83;;;;;;;14.16;74.20;93007.75;5010036;28;20104;-51
2021/07/05 05:15:19;;;;;;;27.85;25.40;;;;;;;14.18;75.07;93018.28;5010545;28;20037;-48
2021/07/05 05:17:45;;;;;;;26.80;23.92;;;;;;;14.26;75.05;93016.09;5010031;28;20053;-49
2021/07/05 05:20:11;;;;;;;21.95;19.92;;;;;;;14.31;75.25;92998.44;5009193;28;20025;-48
2021/07/05 05:22:38;;;;;;;19.88;18.48;;;;;;;14.49;75.00;93010.88;5010240;28;20056;-51
2021/07/05 05:25:06;;;;;;;20.17;18.52;;;;;;;14.62;74.52;93013.19;5010235;28;20030;-49
2021/07/05 05:27:32;;;;;;;23.02;21.42;;;;;;;14.72;74.08;93013.22;5010272;28;20032;-48
2021/07/05 05:29:57;;;;;;;20.60;18.90;;;;;;;14.83;73.42;93012.63;5010085;28;20113;-48
2021/07/05 05:32:23;;;;;;;18.73;17.33;;;;;;;14.92;72.75;93007.03;5009942;28;20022;-51
2021/07/05 05:34:48;;;;;;;18.35;17.02;;;;;;;14.98;72.68;92995.63;5010211;28;20030;-48
2021/07/05 05:37:14;;;;;;;20.00;18.50;;;;;;;15.17;72.75;92998.34;5009909;28;20157;-47
2021/07/05 05:39:40;;;;;;;18.92;17.40;;;;;;;15.18;72.38;92997.75;5009863;28;20029;-48
2021/07/05 05:42:05;;;;;;;20.08;18.83;;;;;;;15.16;73.22;92980.19;5010065;28;20038;-47
2021/07/05 05:44:31;;;;;;;21.15;19.02;;;;;;;15.36;73.10;93008.66;5009620;28;20030;-47
2021/07/05 05:46:57;;;;;;;20.10;18.60;;;;;;;15.47;73.61;92994.16;5009485;28;20046;-48
2021/07/05 05:49:22;;;;;;;20.83;19.08;;;;;;;15.53;73.82;92992.53;5009869;28;20026;-49
2021/07/05 06:03:48;;;;;;;61.83;58.58;;;;;;;16.89;69.92;92961.09;5127447;27;20606;-47
2021/07/05 06:06:13;;;;;;;39.42;37.20;;;;;;;16.93;69.71;92986.47;5127588;27;20035;-48
2021/07/05 06:08:40;;;;;;;36.95;34.85;;;;;;;16.81;70.52;92979.38;5127476;27;20043;-48
2021/07/05 06:11:05;;;;;;;32.88;30.77;;;;;;;16.78;71.18;92977.81;5127228;27;20015;-48
2021/07/05 06:13:30;;;;;;;31.33;29.50;;;;;;;16.82;70.61;92973.22;5127666;27;20095;-48
2021/07/05 06:15:56;;;;;;;25.80;24.30;;;;;;;16.87;68.99;92963.06;5127412;27;20510;-49
2021/07/05 06:18:21;;;;;;;22.73;21.38;;;;;;;16.79;68.59;92963.25;5127367;27;20024;-49
2021/07/05 06:20:47;;;;;;;29.27;27.48;;;;;;;16.85;68.71;92962.94;5127480;27;20031;-49
2021/07/05 06:23:26;;;;;;;28.90;27.02;;;;;;;16.92;69.37;92961.97;5127506;27;20032;-49
2021/07/05 06:25:52;;;;;;;20.80;19.45;;;;;;;16.82;67.17;92941.81;5127425;27;20024;-48
2021/07/05 06:28:19;;;;;;;23.20;21.67;;;;;;;17.06;67.95;92960.81;5127142;27;20023;-47
2021/07/05 06:30:45;;;;;;;26.75;24.95;;;;;;;17.21;67.22;92962.41;5127371;27;20030;-47
2021/07/05 06:33:12;;;;;;;23.73;22.08;;;;;;;17.35;67.25;92960.47;5121332;28;20140;-47
2021/07/05 06:35:37;;;;;;;19.13;17.83;;;;;;;17.51;65.31;92955.91;5127233;27;20412;-47
2021/07/05 06:38:03;;;;;;;18.25;17.13;;;;;;;17.76;65.33;92956.00;5126240;27;20019;-49
2021/07/05 06:40:29;;;;;;;23.27;21.90;;;;;;;17.73;64.30;92940.50;5126482;27;20033;-48
2021/07/05 06:42:54;;;;;;;23.10;21.73;;;;;;;17.96;64.97;92960.00;5127124;27;20027;-47
2021/07/05 06:45:20;;;;;;;19.40;17.73;;;;;;;18.02;64.31;92957.56;5127047;27;20023;-47
2021/07/05 06:47:45;;;;;;;16.52;15.23;;;;;;;18.18;63.95;92963.38;5126802;27;20503;-48
2021/07/05 06:50:11;;;;;;;16.58;15.38;;;;;;;18.34;62.24;92955.94;5126636;27;20023;-48
2021/07/05 06:52:36;;;;;;;16.45;15.13;;;;;;;18.47;62.99;92957.38;5120808;27;20020;-47
2021/07/05 06:55:03;;;;;;;27.77;25.80;;;;;;;18.44;64.14;92956.53;5124159;28;20047;-48
2021/07/05 06:57:29;;;;;;;29.73;27.83;;;;;;;18.48;65.02;92961.63;5122268;27;20036;-47
2021/07/05 06:59:56;;;;;;;18.60;17.50;;;;;;;18.59;64.34;92958.06;5118000;28;20076;-49
2021/07/05 07:02:21;;;;;;;15.18;14.18;;;;;;;18.67;62.83;92958.50;5125986;27;20043;-50
2021/07/05 07:04:47;;;;;;;18.27;17.15;;;;;;;18.77;61.04;92945.84;5112631;27;20023;-48
2021/07/05 07:07:12;;;;;;;17.60;16.30;;;;;;;18.84;63.96;92944.81;5112581;28;20449;-48
2021/07/05 07:09:37;;;;;;;12.45;11.52;;;;;;;18.89;60.20;92954.16;5112830;28;20027;-48
2021/07/05 07:12:03;;;;;;;12.52;11.60;;;;;;;18.85;59.92;92925.97;5112369;28;20026;-51
2021/07/05 07:14:28;;;;;;;13.10;12.18;;;;;;;19.22;59.80;92946.19;5106733;28;20436;-46
2021/07/05 07:17:03;;;;;;;15.60;14.57;;;;;;;19.43;60.57;92940.38;5092386;28;20023;-48
2021/07/05 07:19:28;;;;;;;13.45;12.55;;;;;;;19.40;59.24;92921.28;5112493;28;20047;-48
2021/07/05 07:21:54;;;;;;;13.63;12.43;;;;;;;19.50;59.77;92922.53;5112453;28;20030;-51
2021/07/05 07:24:19;;;;;;;20.13;18.83;;;;;;;19.75;62.04;92937.81;5101712;28;20020;-49
2021/07/05 07:26:46;;;;;;;12.38;11.57;;;;;;;19.98;57.19;92932.00;5092056;28;20042;-50
2021/07/05 07:29:11;;;;;;;16.55;15.55;;;;;;;20.19;61.04;92928.88;5106750;28;20048;-46
2021/07/05 07:31:37;;;;;;;11.43;10.52;;;;;;;20.47;56.59;92929.56;5110419;28;20024;-47
2021/07/05 07:34:03;;;;;;;13.35;12.15;;;;;;;20.69;57.78;92925.06;5110426;28;20507;-48
2021/07/05 07:36:29;;;;;;;11.68;10.82;;;;;;;21.07;57.86;92926.94;5107954;28;20470;-49
2021/07/05 07:39:01;;;;;;;11.45;10.65;;;;;;;21.50;57.49;92923.97;5094582;28;20057;-50
2021/07/05 07:41:31;;;;;;;9.80;8.80;;;;;;;22.00;56.73;92926.25;5101161;28;20481;-48
2021/07/05 07:43:57;;;;;;;8.40;7.80;;;;;;;22.51;51.34;92917.88;5108666;28;20023;-49
2021/07/05 07:46:22;;;;;;;7.85;7.13;;;;;;;22.86;50.63;92917.22;5109637;28;20559;-51
2021/07/05 07:48:48;;;;;;;7.63;7.03;;;;;;;23.25;51.39;92920.16;5109387;28;20027;-49
2021/07/05 07:51:13;;;;;;;7.80;7.00;;;;;;;23.66;50.17;92922.44;5109489;27;20027;-51
2021/07/05 07:53:39;;;;;;;7.82;7.13;;;;;;;23.98;49.63;92918.00;5109714;28;20028;-49
2021/07/05 07:56:04;;;;;;;7.45;6.75;;;;;;;24.38;46.19;92918.75;5109737;27;20032;-48
2021/07/05 07:58:30;;;;;;;6.93;6.32;;;;;;;24.64;45.38;92914.00;5109592;28;20031;-51
2021/07/05 08:00:55;;;;;;;8.32;6.03;;;;;;;24.94;43.33;92905.81;5097852;28;20039;-48
2021/07/05 08:03:21;;;;;;;7.00;6.28;;;;;;;25.04;44.68;92889.19;5088592;28;20073;-49
2021/07/05 08:05:47;;;;;;;7.72;5.53;;;;;;;25.33;43.58;92900.72;5096279;28;20078;-51
2021/07/05 08:08:15;;;;;;;5.93;5.40;;;;;;;25.56;42.27;92894.38;5111790;28;20090;-50
2021/07/05 08:10:41;;;;;;;6.20;5.70;;;;;;;25.84;43.72;92893.75;5111604;27;20023;-52
2021/07/05 08:13:07;;;;;;;38.53;22.05;;;;;;;25.99;40.44;92899.13;5111885;28;20039;-58
2021/07/05 08:15:33;;;;;;;19.13;11.40;;;;;;;26.26;39.71;92894.97;5110615;28;20024;-57
2021/07/05 08:17:58;;;;;;;19.52;13.32;;;;;;;26.42;40.36;92895.41;5111761;28;20591;-57
2021/07/05 08:20:24;;;;;;;15.48;12.05;;;;;;;26.54;40.42;92884.38;5111281;28;20026;-58
2021/07/05 08:22:54;;;;;;;6.80;5.65;;;;;;;26.76;39.21;92895.59;5110971;27;20023;-57
2021/07/05 08:25:21;;;;;;;8.25;5.45;;;;;;;26.97;38.79;92898.25;5111069;28;20106;-58
2021/07/05 08:27:47;;;;;;;9.07;7.20;;;;;;;27.18;39.29;92895.91;5111249;28;20068;-58
2021/07/05 08:30:12;;;;;;;6.18;5.68;;;;;;;27.30;38.30;92894.06;5111025;27;20102;-57
2021/07/05 08:32:38;;;;;;;15.05;11.13;;;;;;;27.60;37.87;92888.41;5110677;28;20023;-57
2021/07/05 08:35:06;;;;;;;32.92;22.20;;;;;;;28.03;36.95;92899.28;5104470;28;20024;-57
2021/07/05 08:37:31;;;;;;;19.77;13.87;;;;;;;28.41;35.97;92905.69;5100857;28;20027;-58
2021/07/05 08:39:57;;;;;;;5.57;4.25;;;;;;;28.52;33.62;92904.50;5090428;28;20023;-58
2021/07/05 08:42:24;;;;;;;29.33;20.42;;;;;;;28.91;35.48;92903.09;5090518;28;20016;-59
2021/07/05 08:44:49;;;;;;;14.10;12.23;;;;;;;29.13;32.58;92897.78;5093556;28;20435;-57
2021/07/05 08:47:15;;;;;;;25.25;18.52;;;;;;;29.53;33.42;92899.84;5110709;28;20035;-56
2021/07/05 08:49:41;;;;;;;12.32;11.10;;;;;;;30.02;33.22;92899.13;5111009;28;20484;-57
2021/07/05 08:52:06;;;;;;;8.00;5.30;;;;;;;30.12;32.82;92902.13;5110516;28;20028;-56
2021/07/05 08:54:32;;;;;;;5.57;4.22;;;;;;;30.20;33.28;92905.06;5110456;28;20011;-57
2021/07/05 08:56:57;;;;;;;4.95;4.53;;;;;;;30.17;31.57;92897.19;5110930;28;20027;-56
2021/07/05 08:59:23;;;;;;;18.38;13.23;;;;;;;30.45;32.31;92906.09;5110227;28;20489;-56
2021/07/05 09:01:48;;;;;;;11.73;10.43;;;;;;;30.52;30.92;92896.91;5090919;28;20044;-55
2021/07/05 09:04:15;;;;;;;5.43;4.50;;;;;;;31.35;31.24;92895.59;5090245;28;20016;-54
2021/07/05 09:07:16;;;;;;;7.38;5.43;;;;;;;30.86;30.51;92893.75;5094368;28;20038;-52
2021/07/05 09:09:57;;;;;;;7.63;6.97;;;;;;;30.04;31.03;92899.16;5085836;28;20099;-52
2021/07/05 09:12:23;;;;;;;6.82;6.05;;;;;;;29.39;33.76;92896.81;5103665;28;20036;-54
2021/07/05 09:15:08;;;;;;;5.05;4.00;;;;;;;28.71;33.57;92899.91;5101365;28;20051;-54
2021/07/05 09:17:40;;;;;;;15.80;13.13;;;;;;;28.04;34.85;92895.03;5098961;28;20034;-54
2021/07/05 09:20:14;;;;;;;18.38;6.78;;;;;;;27.53;36.78;92898.16;5098104;28;20035;-55
2021/07/05 09:23:11;;;;;;;5.63;5.10;;;;;;;27.17;36.78;92888.78;5096264;28;20027;-56
2021/07/05 09:25:39;;;;;;;7.05;6.13;;;;;;;26.93;38.75;92886.81;5100983;27;20076;-55
2021/07/05 09:28:05;;;;;;;12.07;9.53;;;;;;;27.21;38.04;92883.94;5109745;28;20580;-53
2021/07/05 09:30:40;;;;;;;5.75;5.25;;;;;;;27.64;40.15;92883.53;5110007;28;20058;-53
2021/07/05 09:33:26;;;;;;;5.25;4.60;;;;;;;28.19;38.37;92882.56;5106345;28;20489;-52
2021/07/05 09:35:55;;;;;;;7.15;5.80;;;;;;;28.73;36.18;92876.50;5098775;28;20423;-54
2021/07/05 09:38:31;;;;;;;6.25;4.50;;;;;;;29.19;34.77;92874.47;5109920;28;20487;-55
2021/07/05 09:40:58;;;;;;;8.40;4.20;;;;;;;29.36;33.92;92861.91;5109924;28;20038;-53
2021/07/05 09:43:25;;;;;;;4.80;4.28;;;;;;;29.29;33.24;92862.50;5110075;28;20062;-54
2021/07/05 09:45:51;;;;;;;4.97;4.18;;;;;;;28.65;33.49;92862.16;5110061;28;20032;-54
2021/07/05 09:48:25;;;;;;;6.47;4.53;;;;;;;28.04;35.31;92868.78;5109076;28;20385;-49
2021/07/05 09:50:58;;;;;;;5.05;4.55;;;;;;;27.22;36.41;92862.72;5109846;28;20397;-50
2021/07/05 09:53:35;;;;;;;25.73;18.77;;;;;;;26.95;38.61;92864.22;5109740;28;20024;-51
2021/07/05 09:56:29;;;;;;;15.82;12.07;;;;;;;27.08;40.46;92861.66;5110401;28;20537;-52
2021/07/05 09:58:57;;;;;;;34.95;24.33;;;;;;;27.26;39.49;92862.81;5109984;28;20059;-51
2021/07/05 10:01:43;;;;;;;20.42;13.10;;;;;;;27.30;40.76;92857.22;5094592;28;20024;-52
2021/07/05 10:04:10;;;;;;;7.45;6.32;;;;;;;27.13;38.71;92863.19;5089856;28;20046;-53
2021/07/05 10:06:59;;;;;;;13.60;10.23;;;;;;;27.26;39.07;92856.41;5089822;28;20039;-53
2021/07/05 10:09:48;;;;;;;8.75;7.75;;;;;;;27.18;40.12;92845.59;5089869;28;20035;-53
2021/07/05 10:12:28;;;;;;;12.18;10.75;;;;;;;27.10;40.32;92856.03;5103112;28;20047;-54
2021/07/05 10:14:59;;;;;;;5.82;5.32;;;;;;;26.91;38.61;92852.78;5109750;28;20043;-54
2021/07/05 10:17:26;;;;;;;10.40;9.27;;;;;;;26.82;40.91;92853.25;5109946;28;20438;-53
2021/07/05 10:19:53;;;;;;;7.97;5.78;;;;;;;26.78;40.29;92845.38;5109915;28;20127;-54
2021/07/05 10:22:19;;;;;;;7.72;7.00;;;;;;;27.15;38.76;92840.56;5109746;28;20020;-54
2021/07/05 10:24:45;;;;;;;30.60;18.30;;;;;;;27.46;38.88;92851.94;5109670;28;20416;-57
2021/07/05 10:27:11;;;;;;;23.92;12.93;;;;;;;27.35;37.59;92843.88;5109826;28;20023;-57
2021/07/05 10:29:41;;;;;;;7.22;5.25;;;;;;;27.15;37.13;92849.78;5109729;28;20464;-56
2021/07/05 10:32:07;;;;;;;6.05;5.43;;;;;;;26.92;37.90;92848.53;5109390;28;20024;-56
2021/07/05 10:34:34;;;;;;;6.43;5.57;;;;;;;27.09;37.47;92844.00;5109635;28;20019;-54
2021/07/05 10:37:01;;;;;;;5.35;4.82;;;;;;;27.25;37.20;92840.78;5107631;28;20035;-53
2021/07/05 10:39:28;;;;;;;5.07;4.43;;;;;;;27.17;36.96;92844.16;5090332;28;20028;-52
2021/07/05 10:41:53;;;;;;;6.25;5.65;;;;;;;26.90;37.37;92842.84;5091616;28;20570;-53
2021/07/05 10:44:21;;;;;;;6.55;5.95;;;;;;;26.62;38.42;92847.78;5092822;28;20032;-55
2021/07/05 10:46:54;;;;;;;7.07;5.82;;;;;;;26.56;38.40;92833.47;5092741;28;20103;-58
2021/07/05 10:49:32;;;;;;;12.43;6.82;;;;;;;26.70;38.74;92831.00;5092808;28;20032;-57
2021/07/05 10:52:01;;;;;;;8.50;6.82;;;;;;;27.02;38.43;92840.31;5092838;28;20028;-56
2021/07/05 10:54:52;;;;;;;11.48;9.80;;;;;;;27.23;38.37;92837.91;5092560;28;20024;-56
2021/07/05 10:57:22;;;;;;;19.92;13.63;;;;;;;27.18;38.69;92837.09;5092958;28;20028;-56
2021/07/05 10:59:49;;;;;;;26.73;18.10;;;;;;;27.21;38.18;92837.88;5094915;28;20031;-55
2021/07/05 11:02:35;;;;;;;12.18;6.85;;;;;;;27.14;37.77;92834.19;5112601;28;20062;-55
2021/07/05 11:05:01;;;;;;;17.40;6.85;;;;;;;27.07;38.79;92840.38;5113132;28;20024;-55
2021/07/05 11:07:44;;;;;;;10.07;6.93;;;;;;;27.00;39.25;92837.41;5113054;28;20030;-55
2021/07/05 11:10:18;;;;;;;9.02;7.85;;;;;;;26.90;39.72;92833.59;5113016;28;20020;-56
2021/07/05 11:12:59;;;;;;;7.18;6.47;;;;;;;26.83;39.31;92834.88;5094051;28;20031;-55
2021/07/05 11:15:58;;;;;;;10.18;8.73;;;;;;;27.10;41.79;92831.25;5092302;28;20594;-54
2021/07/05 11:18:35;;;;;;;;;;;;;;;27.59;39.04;92835.91;5088674;28;20036;-49
2021/07/05 11:21:01;;;;;;;9.43;7.05;;;;;;;28.14;39.57;92835.63;5092617;28;20003;-51
2021/07/05 11:23:56;;;;;;;8.15;7.35;;;;;;;28.91;38.37;92834.88;5091989;28;20542;-53
2021/07/05 11:26:23;;;;;;;14.70;12.23;;;;;;;29.51;36.80;92834.38;5091672;28;20046;-49
2021/07/05 11:29:13;;;;;;;7.50;6.07;;;;;;;30.01;38.71;92828.66;5092228;28;20111;-52
2021/07/05 11:31:58;;;;;;;14.13;11.07;;;;;;;30.33;35.10;92831.91;5091932;28;20036;-51
2021/07/05 11:34:33;;;;;;;9.00;6.45;;;;;;;30.85;33.40;92817.44;5102203;28;20020;-50
2021/07/05 11:37:11;;;;;;;6.18;4.90;;;;;;;31.12;31.74;92821.97;5112333;27;20027;-50